sensor_id;sensor_type;location;lat;lon;timestamp;P1;durP1;ratioP1;P2;durP2;ratioP2
5217;SDS011;26539;51.064;6.346;2023-11-18T00:01:47;27.20;;;17.38;;
5217;SDS011;26539;51.064;6.346;2023-11-18T00:04:13;26.60;;;17.13;;
5217;SDS011;26539;51.064;6.346;2023-11-18T00:06:42;26.23;;;16.60;;
5217;SDS011;26539;51.064;6.346;2023-11-18T00:09:11;31.20;;;16.60;;
5217;SDS011;26539;51.064;6.346;2023-11-18T00:11:40;26.20;;;16.27;;
5217;SDS011;26539;51.064;6.346;2023-11-18T00:14:07;27.13;;;16.42;;
5217;SDS011;26539;51.064;6.346;2023-11-18T00:16:32;27.87;;;17.30;;
5217;SDS011;26539;51.064;6.346;2023-11-18T00:18:59;35.45;;;18.02;;
5217;SDS011;26539;51.064;6.346;2023-11-18T00:21:25;32.22;;;16.95;;
5217;SDS011;26539;51.064;6.346;2023-11-18T00:23:50;26.53;;;16.73;;
5217;SDS011;26539;51.064;6.346;2023-11-18T00:26:16;33.80;;;17.63;;
5217;SDS011;26539;51.064;6.346;2023-11-18T00:28:42;28.40;;;16.03;;
5217;SDS011;26539;51.064;6.346;2023-11-18T00:31:07;23.53;;;16.23;;
5217;SDS011;26539;51.064;6.346;2023-11-18T00:33:33;25.93;;;16.90;;
5217;SDS011;26539;51.064;6.346;2023-11-18T00:35:58;26.23;;;16.13;;
5217;SDS011;26539;51.064;6.346;2023-11-18T00:38:26;24.60;;;15.35;;
5217;SDS011;26539;51.064;6.346;2023-11-18T00:40:51;28.53;;;17.20;;
5217;SDS011;26539;51.064;6.346;2023-11-18T00:43:17;24.33;;;16.67;;
5217;SDS011;26539;51.064;6.346;2023-11-18T00:45:42;24.80;;;17.60;;
5217;SDS011;26539;51.064;6.346;2023-11-18T00:48:08;27.73;;;16.83;;
5217;SDS011;26539;51.064;6.346;2023-11-18T00:50:34;26.53;;;17.63;;
5217;SDS011;26539;51.064;6.346;2023-11-18T00:53:00;24.63;;;16.60;;
5217;SDS011;26539;51.064;6.346;2023-11-18T00:55:26;32.90;;;17.43;;
5217;SDS011;26539;51.064;6.346;2023-11-18T00:57:52;27.10;;;17.40;;
5217;SDS011;26539;51.064;6.346;2023-11-18T01:00:18;26.53;;;17.90;;
5217;SDS011;26539;51.064;6.346;2023-11-18T01:02:47;27.65;;;16.98;;
5217;SDS011;26539;51.064;6.346;2023-11-18T01:05:14;27.75;;;17.23;;
5217;SDS011;26539;51.064;6.346;2023-11-18T01:07:40;34.38;;;18.98;;
5217;SDS011;26539;51.064;6.346;2023-11-18T01:10:06;25.05;;;16.63;;
5217;SDS011;26539;51.064;6.346;2023-11-18T01:12:34;27.58;;;18.42;;
5217;SDS011;26539;51.064;6.346;2023-11-18T01:14:59;31.92;;;18.38;;
5217;SDS011;26539;51.064;6.346;2023-11-18T01:17:25;31.13;;;16.23;;
5217;SDS011;26539;51.064;6.346;2023-11-18T01:19:51;25.10;;;16.77;;
5217;SDS011;26539;51.064;6.346;2023-11-18T01:22:16;31.30;;;17.60;;
5217;SDS011;26539;51.064;6.346;2023-11-18T01:24:43;29.67;;;17.08;;
5217;SDS011;26539;51.064;6.346;2023-11-18T01:27:09;36.03;;;18.73;;
5217;SDS011;26539;51.064;6.346;2023-11-18T01:29:36;32.58;;;18.05;;
5217;SDS011;26539;51.064;6.346;2023-11-18T01:32:02;29.02;;;17.45;;
5217;SDS011;26539;51.064;6.346;2023-11-18T01:34:36;27.05;;;18.38;;
5217;SDS011;26539;51.064;6.346;2023-11-18T01:37:04;28.83;;;17.98;;
5217;SDS011;26539;51.064;6.346;2023-11-18T01:39:32;29.35;;;19.05;;
5217;SDS011;26539;51.064;6.346;2023-11-18T01:42:01;29.63;;;19.98;;
5217;SDS011;26539;51.064;6.346;2023-11-18T01:44:28;26.13;;;16.30;;
5217;SDS011;26539;51.064;6.346;2023-11-18T01:46:54;27.00;;;17.77;;
5217;SDS011;26539;51.064;6.346;2023-11-18T01:49:21;27.00;;;17.10;;
5217;SDS011;26539;51.064;6.346;2023-11-18T01:51:47;21.75;;;15.70;;
5217;SDS011;26539;51.064;6.346;2023-11-18T01:54:18;29.55;;;17.83;;
5217;SDS011;26539;51.064;6.346;2023-11-18T01:56:48;26.13;;;17.50;;
5217;SDS011;26539;51.064;6.346;2023-11-18T01:59:14;25.20;;;17.40;;
5217;SDS011;26539;51.064;6.346;2023-11-18T02:01:46;29.38;;;18.73;;
5217;SDS011;26539;51.064;6.346;2023-11-18T02:04:15;27.80;;;16.33;;
5217;SDS011;26539;51.064;6.346;2023-11-18T02:06:41;30.83;;;17.98;;
5217;SDS011;26539;51.064;6.346;2023-11-18T02:09:09;28.13;;;18.00;;
5217;SDS011;26539;51.064;6.346;2023-11-18T02:11:36;29.05;;;17.85;;
5217;SDS011;26539;51.064;6.346;2023-11-18T02:14:07;26.92;;;17.42;;
5217;SDS011;26539;51.064;6.346;2023-11-18T02:16:38;26.00;;;17.08;;
5217;SDS011;26539;51.064;6.346;2023-11-18T02:19:09;27.20;;;16.85;;
5217;SDS011;26539;51.064;6.346;2023-11-18T02:21:44;26.10;;;17.52;;
5217;SDS011;26539;51.064;6.346;2023-11-18T02:24:11;24.95;;;16.95;;
5217;SDS011;26539;51.064;6.346;2023-11-18T02:26:49;25.77;;;16.80;;
5217;SDS011;26539;51.064;6.346;2023-11-18T02:29:15;25.13;;;17.23;;
5217;SDS011;26539;51.064;6.346;2023-11-18T02:31:40;28.40;;;17.37;;
5217;SDS011;26539;51.064;6.346;2023-11-18T02:34:12;28.13;;;18.20;;
5217;SDS011;26539;51.064;6.346;2023-11-18T02:36:43;25.60;;;17.58;;
5217;SDS011;26539;51.064;6.346;2023-11-18T02:39:12;28.05;;;17.60;;
5217;SDS011;26539;51.064;6.346;2023-11-18T02:41:53;31.40;;;18.58;;
5217;SDS011;26539;51.064;6.346;2023-11-18T02:44:21;30.05;;;20.45;;
5217;SDS011;26539;51.064;6.346;2023-11-18T02:46:48;32.22;;;20.15;;
5217;SDS011;26539;51.064;6.346;2023-11-18T02:49:13;31.20;;;18.30;;
5217;SDS011;26539;51.064;6.346;2023-11-18T02:51:40;28.90;;;17.33;;
5217;SDS011;26539;51.064;6.346;2023-11-18T02:54:06;29.60;;;17.70;;
5217;SDS011;26539;51.064;6.346;2023-11-18T02:56:35;28.63;;;16.33;;
5217;SDS011;26539;51.064;6.346;2023-11-18T02:59:04;25.33;;;16.73;;
5217;SDS011;26539;51.064;6.346;2023-11-18T03:01:30;25.97;;;16.93;;
5217;SDS011;26539;51.064;6.346;2023-11-18T03:03:56;30.50;;;18.00;;
5217;SDS011;26539;51.064;6.346;2023-11-18T03:06:23;27.80;;;18.73;;
5217;SDS011;26539;51.064;6.346;2023-11-18T03:08:48;29.00;;;17.77;;
5217;SDS011;26539;51.064;6.346;2023-11-18T03:11:14;32.80;;;19.70;;
5217;SDS011;26539;51.064;6.346;2023-11-18T03:13:39;28.33;;;17.80;;
5217;SDS011;26539;51.064;6.346;2023-11-18T03:16:08;28.83;;;16.87;;
5217;SDS011;26539;51.064;6.346;2023-11-18T03:18:37;31.15;;;18.48;;
5217;SDS011;26539;51.064;6.346;2023-11-18T03:21:04;26.17;;;17.52;;
5217;SDS011;26539;51.064;6.346;2023-11-18T03:23:31;26.75;;;17.52;;
5217;SDS011;26539;51.064;6.346;2023-11-18T03:25:57;25.93;;;16.53;;
5217;SDS011;26539;51.064;6.346;2023-11-18T03:28:23;28.27;;;16.87;;
5217;SDS011;26539;51.064;6.346;2023-11-18T03:30:49;31.77;;;18.90;;
5217;SDS011;26539;51.064;6.346;2023-11-18T03:33:14;29.47;;;17.50;;
5217;SDS011;26539;51.064;6.346;2023-11-18T03:35:39;27.30;;;18.90;;
5217;SDS011;26539;51.064;6.346;2023-11-18T03:38:05;28.00;;;18.20;;
5217;SDS011;26539;51.064;6.346;2023-11-18T03:40:31;32.23;;;20.30;;
5217;SDS011;26539;51.064;6.346;2023-11-18T03:42:56;41.20;;;20.80;;
5217;SDS011;26539;51.064;6.346;2023-11-18T03:45:23;33.53;;;22.42;;
5217;SDS011;26539;51.064;6.346;2023-11-18T03:47:49;32.70;;;19.57;;
5217;SDS011;26539;51.064;6.346;2023-11-18T03:50:15;29.23;;;18.42;;
5217;SDS011;26539;51.064;6.346;2023-11-18T03:52:41;26.50;;;17.48;;
5217;SDS011;26539;51.064;6.346;2023-11-18T03:55:07;35.00;;;19.63;;
5217;SDS011;26539;51.064;6.346;2023-11-18T03:57:33;33.92;;;18.17;;
5217;SDS011;26539;51.064;6.346;2023-11-18T03:59:59;32.50;;;19.20;;
5217;SDS011;26539;51.064;6.346;2023-11-18T04:02:25;29.63;;;19.67;;
5217;SDS011;26539;51.064;6.346;2023-11-18T04:04:50;30.30;;;18.50;;
5217;SDS011;26539;51.064;6.346;2023-11-18T04:07:16;31.30;;;19.40;;
5217;SDS011;26539;51.064;6.346;2023-11-18T04:09:42;26.93;;;17.47;;
5217;SDS011;26539;51.064;6.346;2023-11-18T04:12:08;34.63;;;20.30;;
5217;SDS011;26539;51.064;6.346;2023-11-18T04:14:35;34.47;;;20.80;;
5217;SDS011;26539;51.064;6.346;2023-11-18T04:17:01;31.77;;;19.27;;
5217;SDS011;26539;51.064;6.346;2023-11-18T04:19:27;37.45;;;19.85;;
5217;SDS011;26539;51.064;6.346;2023-11-18T04:21:53;31.40;;;18.50;;
5217;SDS011;26539;51.064;6.346;2023-11-18T04:24:18;33.07;;;20.53;;
5217;SDS011;26539;51.064;6.346;2023-11-18T04:26:44;31.60;;;19.10;;
5217;SDS011;26539;51.064;6.346;2023-11-18T04:29:10;32.90;;;19.03;;
5217;SDS011;26539;51.064;6.346;2023-11-18T04:31:35;30.90;;;18.23;;
5217;SDS011;26539;51.064;6.346;2023-11-18T04:34:02;34.83;;;20.17;;
5217;SDS011;26539;51.064;6.346;2023-11-18T04:36:29;35.03;;;19.90;;
5217;SDS011;26539;51.064;6.346;2023-11-18T04:38:56;32.22;;;20.45;;
5217;SDS011;26539;51.064;6.346;2023-11-18T04:41:21;30.23;;;19.20;;
5217;SDS011;26539;51.064;6.346;2023-11-18T04:43:48;33.08;;;19.70;;
5217;SDS011;26539;51.064;6.346;2023-11-18T04:46:14;34.27;;;18.90;;
5217;SDS011;26539;51.064;6.346;2023-11-18T04:48:39;29.60;;;16.90;;
5217;SDS011;26539;51.064;6.346;2023-11-18T04:51:05;33.10;;;17.20;;
5217;SDS011;26539;51.064;6.346;2023-11-18T04:53:31;35.47;;;19.40;;
5217;SDS011;26539;51.064;6.346;2023-11-18T04:55:56;33.57;;;18.07;;
5217;SDS011;26539;51.064;6.346;2023-11-18T04:58:23;34.42;;;18.95;;
5217;SDS011;26539;51.064;6.346;2023-11-18T05:00:49;34.50;;;19.97;;
5217;SDS011;26539;51.064;6.346;2023-11-18T05:03:15;35.72;;;18.23;;
5217;SDS011;26539;51.064;6.346;2023-11-18T05:05:41;34.55;;;18.65;;
5217;SDS011;26539;51.064;6.346;2023-11-18T05:08:07;39.13;;;19.30;;
5217;SDS011;26539;51.064;6.346;2023-11-18T05:10:45;32.80;;;19.48;;
5217;SDS011;26539;51.064;6.346;2023-11-18T05:13:14;37.58;;;19.50;;
5217;SDS011;26539;51.064;6.346;2023-11-18T05:15:42;34.13;;;18.75;;
5217;SDS011;26539;51.064;6.346;2023-11-18T05:18:10;31.00;;;18.23;;
5217;SDS011;26539;51.064;6.346;2023-11-18T05:20:40;36.72;;;19.63;;
5217;SDS011;26539;51.064;6.346;2023-11-18T05:23:06;35.03;;;18.92;;
5217;SDS011;26539;51.064;6.346;2023-11-18T05:25:34;35.40;;;16.35;;
5217;SDS011;26539;51.064;6.346;2023-11-18T05:28:08;34.90;;;19.17;;
5217;SDS011;26539;51.064;6.346;2023-11-18T05:30:34;38.90;;;19.77;;
5217;SDS011;26539;51.064;6.346;2023-11-18T05:33:02;35.17;;;18.17;;
5217;SDS011;26539;51.064;6.346;2023-11-18T05:35:30;29.30;;;17.80;;
5217;SDS011;26539;51.064;6.346;2023-11-18T05:37:56;29.40;;;16.40;;
5217;SDS011;26539;51.064;6.346;2023-11-18T05:40:22;33.77;;;17.60;;
5217;SDS011;26539;51.064;6.346;2023-11-18T05:42:48;36.17;;;17.53;;
5217;SDS011;26539;51.064;6.346;2023-11-18T05:45:16;30.42;;;17.42;;
5217;SDS011;26539;51.064;6.346;2023-11-18T05:47:53;28.80;;;16.05;;
5217;SDS011;26539;51.064;6.346;2023-11-18T05:50:22;32.72;;;17.88;;
5217;SDS011;26539;51.064;6.346;2023-11-18T05:52:52;31.95;;;17.00;;
5217;SDS011;26539;51.064;6.346;2023-11-18T05:55:18;30.98;;;16.70;;
5217;SDS011;26539;51.064;6.346;2023-11-18T05:57:44;27.33;;;16.40;;
5217;SDS011;26539;51.064;6.346;2023-11-18T06:00:11;30.47;;;15.30;;
5217;SDS011;26539;51.064;6.346;2023-11-18T06:02:41;29.83;;;16.30;;
5217;SDS011;26539;51.064;6.346;2023-11-18T06:05:07;25.73;;;15.25;;
5217;SDS011;26539;51.064;6.346;2023-11-18T06:07:33;26.33;;;15.70;;
5217;SDS011;26539;51.064;6.346;2023-11-18T06:10:00;28.50;;;14.55;;
5217;SDS011;26539;51.064;6.346;2023-11-18T06:12:26;24.77;;;13.13;;
5217;SDS011;26539;51.064;6.346;2023-11-18T06:14:52;27.20;;;14.40;;
5217;SDS011;26539;51.064;6.346;2023-11-18T06:17:17;23.03;;;13.77;;
5217;SDS011;26539;51.064;6.346;2023-11-18T06:19:44;21.67;;;13.30;;
5217;SDS011;26539;51.064;6.346;2023-11-18T06:22:09;22.20;;;13.60;;
5217;SDS011;26539;51.064;6.346;2023-11-18T06:24:35;23.60;;;14.60;;
5217;SDS011;26539;51.064;6.346;2023-11-18T06:27:01;34.90;;;13.83;;
5217;SDS011;26539;51.064;6.346;2023-11-18T06:29:26;23.83;;;12.80;;
5217;SDS011;26539;51.064;6.346;2023-11-18T06:31:54;23.52;;;13.90;;
5217;SDS011;26539;51.064;6.346;2023-11-18T06:34:19;26.33;;;13.60;;
5217;SDS011;26539;51.064;6.346;2023-11-18T06:36:45;20.30;;;13.27;;
5217;SDS011;26539;51.064;6.346;2023-11-18T06:39:11;22.63;;;13.53;;
5217;SDS011;26539;51.064;6.346;2023-11-18T06:41:38;21.38;;;12.43;;
5217;SDS011;26539;51.064;6.346;2023-11-18T06:44:13;21.42;;;13.63;;
5217;SDS011;26539;51.064;6.346;2023-11-18T06:46:43;18.45;;;11.82;;
5217;SDS011;26539;51.064;6.346;2023-11-18T06:49:09;17.95;;;12.75;;
5217;SDS011;26539;51.064;6.346;2023-11-18T06:51:41;22.45;;;12.55;;
5217;SDS011;26539;51.064;6.346;2023-11-18T06:54:07;18.95;;;12.38;;
5217;SDS011;26539;51.064;6.346;2023-11-18T06:56:41;19.80;;;12.32;;
5217;SDS011;26539;51.064;6.346;2023-11-18T06:59:08;17.10;;;11.57;;
5217;SDS011;26539;51.064;6.346;2023-11-18T07:01:37;19.35;;;12.80;;
5217;SDS011;26539;51.064;6.346;2023-11-18T07:04:05;25.88;;;12.27;;
5217;SDS011;26539;51.064;6.346;2023-11-18T07:06:33;22.35;;;12.70;;
5217;SDS011;26539;51.064;6.346;2023-11-18T07:09:03;19.50;;;11.75;;
5217;SDS011;26539;51.064;6.346;2023-11-18T07:11:46;20.38;;;13.30;;
5217;SDS011;26539;51.064;6.346;2023-11-18T07:14:12;18.80;;;11.43;;
5217;SDS011;26539;51.064;6.346;2023-11-18T07:16:39;16.60;;;11.57;;
5217;SDS011;26539;51.064;6.346;2023-11-18T07:19:05;23.67;;;12.55;;
5217;SDS011;26539;51.064;6.346;2023-11-18T07:21:31;19.90;;;11.85;;
5217;SDS011;26539;51.064;6.346;2023-11-18T07:23:58;19.38;;;12.10;;
5217;SDS011;26539;51.064;6.346;2023-11-18T07:26:24;19.63;;;12.87;;
5217;SDS011;26539;51.064;6.346;2023-11-18T07:28:49;21.63;;;13.20;;
5217;SDS011;26539;51.064;6.346;2023-11-18T07:31:16;24.67;;;13.10;;
5217;SDS011;26539;51.064;6.346;2023-11-18T07:33:43;19.77;;;13.13;;
5217;SDS011;26539;51.064;6.346;2023-11-18T07:36:13;19.20;;;12.73;;
5217;SDS011;26539;51.064;6.346;2023-11-18T07:38:40;21.70;;;14.15;;
5217;SDS011;26539;51.064;6.346;2023-11-18T07:41:06;18.33;;;13.33;;
5217;SDS011;26539;51.064;6.346;2023-11-18T07:43:33;23.45;;;13.27;;
5217;SDS011;26539;51.064;6.346;2023-11-18T07:46:02;23.67;;;13.32;;
5217;SDS011;26539;51.064;6.346;2023-11-18T07:48:28;18.05;;;13.02;;
5217;SDS011;26539;51.064;6.346;2023-11-18T07:50:56;19.85;;;12.90;;
5217;SDS011;26539;51.064;6.346;2023-11-18T07:53:22;18.83;;;11.53;;
5217;SDS011;26539;51.064;6.346;2023-11-18T07:55:47;21.97;;;12.67;;
5217;SDS011;26539;51.064;6.346;2023-11-18T07:58:15;21.55;;;13.73;;
5217;SDS011;26539;51.064;6.346;2023-11-18T08:00:45;17.67;;;11.80;;
5217;SDS011;26539;51.064;6.346;2023-11-18T08:03:11;22.20;;;13.95;;
5217;SDS011;26539;51.064;6.346;2023-11-18T08:05:37;17.35;;;12.10;;
5217;SDS011;26539;51.064;6.346;2023-11-18T08:08:08;19.17;;;13.45;;
5217;SDS011;26539;51.064;6.346;2023-11-18T08:10:36;17.48;;;11.68;;
5217;SDS011;26539;51.064;6.346;2023-11-18T08:13:05;19.85;;;12.73;;
5217;SDS011;26539;51.064;6.346;2023-11-18T08:15:43;14.93;;;11.07;;
5217;SDS011;26539;51.064;6.346;2023-11-18T08:18:29;17.80;;;9.80;;
5217;SDS011;26539;51.064;6.346;2023-11-18T08:20:56;16.38;;;9.50;;
5217;SDS011;26539;51.064;6.346;2023-11-18T08:23:25;16.70;;;10.65;;
5217;SDS011;26539;51.064;6.346;2023-11-18T08:25:53;14.27;;;10.07;;
5217;SDS011;26539;51.064;6.346;2023-11-18T08:28:24;14.25;;;9.65;;
5217;SDS011;26539;51.064;6.346;2023-11-18T08:30:50;17.83;;;9.82;;
5217;SDS011;26539;51.064;6.346;2023-11-18T08:33:20;13.07;;;9.75;;
5217;SDS011;26539;51.064;6.346;2023-11-18T08:35:49;19.83;;;9.65;;
5217;SDS011;26539;51.064;6.346;2023-11-18T08:38:14;16.53;;;9.43;;
5217;SDS011;26539;51.064;6.346;2023-11-18T08:40:43;13.83;;;8.13;;
5217;SDS011;26539;51.064;6.346;2023-11-18T08:43:13;13.82;;;9.15;;
5217;SDS011;26539;51.064;6.346;2023-11-18T08:45:41;17.00;;;10.00;;
5217;SDS011;26539;51.064;6.346;2023-11-18T08:48:06;15.07;;;9.27;;
5217;SDS011;26539;51.064;6.346;2023-11-18T08:50:33;12.93;;;8.80;;
5217;SDS011;26539;51.064;6.346;2023-11-18T08:56:39;12.80;;;9.20;;
5217;SDS011;26539;51.064;6.346;2023-11-18T08:59:25;18.50;;;8.23;;
5217;SDS011;26539;51.064;6.346;2023-11-18T09:01:53;11.68;;;8.23;;
5217;SDS011;26539;51.064;6.346;2023-11-18T09:04:24;13.68;;;8.38;;
5217;SDS011;26539;51.064;6.346;2023-11-18T09:06:50;12.25;;;8.05;;
5217;SDS011;26539;51.064;6.346;2023-11-18T09:09:19;9.80;;;7.65;;
5217;SDS011;26539;51.064;6.346;2023-11-18T09:11:55;14.17;;;7.40;;
5217;SDS011;26539;51.064;6.346;2023-11-18T09:14:22;12.23;;;7.40;;
5217;SDS011;26539;51.064;6.346;2023-11-18T09:16:51;13.77;;;9.23;;
5217;SDS011;26539;51.064;6.346;2023-11-18T09:19:20;15.90;;;10.70;;
5217;SDS011;26539;51.064;6.346;2023-11-18T09:21:46;23.63;;;14.80;;
5217;SDS011;26539;51.064;6.346;2023-11-18T09:24:12;12.57;;;9.03;;
5217;SDS011;26539;51.064;6.346;2023-11-18T09:26:39;14.60;;;9.10;;
5217;SDS011;26539;51.064;6.346;2023-11-18T09:29:05;18.40;;;11.20;;
5217;SDS011;26539;51.064;6.346;2023-11-18T09:31:33;26.50;;;12.90;;
5217;SDS011;26539;51.064;6.346;2023-11-18T09:34:00;10.73;;;7.90;;
5217;SDS011;26539;51.064;6.346;2023-11-18T09:36:26;13.17;;;6.90;;
5217;SDS011;26539;51.064;6.346;2023-11-18T09:38:53;16.30;;;13.00;;
5217;SDS011;26539;51.064;6.346;2023-11-18T09:41:19;21.83;;;15.43;;
5217;SDS011;26539;51.064;6.346;2023-11-18T09:43:49;13.30;;;8.80;;
5217;SDS011;26539;51.064;6.346;2023-11-18T09:46:27;12.30;;;7.03;;
5217;SDS011;26539;51.064;6.346;2023-11-18T09:49:06;8.43;;;6.53;;
5217;SDS011;26539;51.064;6.346;2023-11-18T09:51:50;16.10;;;7.87;;
5217;SDS011;26539;51.064;6.346;2023-11-18T09:54:31;12.70;;;8.80;;
5217;SDS011;26539;51.064;6.346;2023-11-18T09:57:13;12.17;;;7.00;;
5217;SDS011;26539;51.064;6.346;2023-11-18T10:02:50;9.70;;;7.93;;
5217;SDS011;26539;51.064;6.346;2023-11-18T10:05:16;13.93;;;7.47;;
5217;SDS011;26539;51.064;6.346;2023-11-18T10:07:51;12.23;;;7.53;;
5217;SDS011;26539;51.064;6.346;2023-11-18T10:10:17;10.20;;;7.10;;
5217;SDS011;26539;51.064;6.346;2023-11-18T10:12:46;11.43;;;7.27;;
5217;SDS011;26539;51.064;6.346;2023-11-18T10:15:17;26.20;;;9.07;;
5217;SDS011;26539;51.064;6.346;2023-11-18T10:17:48;13.73;;;8.03;;
5217;SDS011;26539;51.064;6.346;2023-11-18T10:20:42;17.47;;;8.73;;
5217;SDS011;26539;51.064;6.346;2023-11-18T10:23:12;13.33;;;8.47;;
5217;SDS011;26539;51.064;6.346;2023-11-18T10:25:47;13.60;;;8.60;;
5217;SDS011;26539;51.064;6.346;2023-11-18T10:28:28;12.87;;;7.37;;
5217;SDS011;26539;51.064;6.346;2023-11-18T10:31:01;14.07;;;7.50;;
5217;SDS011;26539;51.064;6.346;2023-11-18T10:35:58;10.73;;;6.63;;
5217;SDS011;26539;51.064;6.346;2023-11-18T10:38:28;10.90;;;7.03;;
5217;SDS011;26539;51.064;6.346;2023-11-18T10:41:04;13.60;;;7.80;;
5217;SDS011;26539;51.064;6.346;2023-11-18T10:43:30;13.20;;;7.97;;
5217;SDS011;26539;51.064;6.346;2023-11-18T10:46:07;11.43;;;7.90;;
5217;SDS011;26539;51.064;6.346;2023-11-18T10:48:39;13.67;;;8.33;;
5217;SDS011;26539;51.064;6.346;2023-11-18T10:51:09;12.33;;;9.37;;
5217;SDS011;26539;51.064;6.346;2023-11-18T10:53:39;13.80;;;7.80;;
5217;SDS011;26539;51.064;6.346;2023-11-18T10:56:17;12.10;;;7.00;;
5217;SDS011;26539;51.064;6.346;2023-11-18T10:58:55;13.00;;;6.50;;
5217;SDS011;26539;51.064;6.346;2023-11-18T11:01:28;13.50;;;5.67;;
5217;SDS011;26539;51.064;6.346;2023-11-18T11:03:56;11.07;;;5.27;;
5217;SDS011;26539;51.064;6.346;2023-11-18T11:06:26;9.03;;;5.50;;
5217;SDS011;26539;51.064;6.346;2023-11-18T11:08:59;9.53;;;5.40;;
5217;SDS011;26539;51.064;6.346;2023-11-18T11:11:25;14.90;;;5.63;;
5217;SDS011;26539;51.064;6.346;2023-11-18T11:13:55;7.07;;;4.07;;
5217;SDS011;26539;51.064;6.346;2023-11-18T11:16:22;6.90;;;3.70;;
5217;SDS011;26539;51.064;6.346;2023-11-18T11:18:55;5.30;;;3.07;;
5217;SDS011;26539;51.064;6.346;2023-11-18T11:21:26;9.87;;;3.53;;
5217;SDS011;26539;51.064;6.346;2023-11-18T11:23:55;5.90;;;3.40;;
5217;SDS011;26539;51.064;6.346;2023-11-18T11:26:30;6.17;;;4.10;;
5217;SDS011;26539;51.064;6.346;2023-11-18T11:29:22;7.93;;;3.90;;
5217;SDS011;26539;51.064;6.346;2023-11-18T11:31:58;5.57;;;2.50;;
5217;SDS011;26539;51.064;6.346;2023-11-18T11:34:54;10.97;;;3.93;;
5217;SDS011;26539;51.064;6.346;2023-11-18T11:37:23;4.57;;;3.00;;
5217;SDS011;26539;51.064;6.346;2023-11-18T11:39:51;6.90;;;3.20;;
5217;SDS011;26539;51.064;6.346;2023-11-18T11:42:18;8.23;;;3.70;;
5217;SDS011;26539;51.064;6.346;2023-11-18T11:44:47;5.87;;;3.73;;
5217;SDS011;26539;51.064;6.346;2023-11-18T11:47:14;8.10;;;4.80;;
5217;SDS011;26539;51.064;6.346;2023-11-18T11:49:52;7.87;;;4.23;;
5217;SDS011;26539;51.064;6.346;2023-11-18T11:52:24;6.40;;;3.70;;
5217;SDS011;26539;51.064;6.346;2023-11-18T11:57:41;8.53;;;4.83;;
5217;SDS011;26539;51.064;6.346;2023-11-18T12:00:09;5.93;;;4.10;;
5217;SDS011;26539;51.064;6.346;2023-11-18T12:02:48;7.57;;;4.87;;
5217;SDS011;26539;51.064;6.346;2023-11-18T12:05:18;7.07;;;5.10;;
5217;SDS011;26539;51.064;6.346;2023-11-18T12:07:53;6.43;;;4.40;;
5217;SDS011;26539;51.064;6.346;2023-11-18T12:10:21;6.30;;;3.43;;
5217;SDS011;26539;51.064;6.346;2023-11-18T12:13:01;9.77;;;3.03;;
5217;SDS011;26539;51.064;6.346;2023-11-18T12:15:51;20.93;;;13.00;;
5217;SDS011;26539;51.064;6.346;2023-11-18T12:18:29;12.53;;;9.07;;
5217;SDS011;26539;51.064;6.346;2023-11-18T12:20:57;14.37;;;10.23;;
5217;SDS011;26539;51.064;6.346;2023-11-18T12:23:27;9.10;;;8.27;;
5217;SDS011;26539;51.064;6.346;2023-11-18T12:25:53;9.43;;;6.63;;
5217;SDS011;26539;51.064;6.346;2023-11-18T12:31:15;7.00;;;5.73;;
5217;SDS011;26539;51.064;6.346;2023-11-18T12:34:06;7.80;;;6.13;;
5217;SDS011;26539;51.064;6.346;2023-11-18T12:36:39;7.90;;;7.10;;
5217;SDS011;26539;51.064;6.346;2023-11-18T12:43:10;9.93;;;3.23;;
5217;SDS011;26539;51.064;6.346;2023-11-18T12:45:44;4.90;;;2.57;;
5217;SDS011;26539;51.064;6.346;2023-11-18T12:48:39;4.80;;;2.70;;
5217;SDS011;26539;51.064;6.346;2023-11-18T12:51:13;7.83;;;3.40;;
5217;SDS011;26539;51.064;6.346;2023-11-18T12:53:45;20.20;;;9.60;;
5217;SDS011;26539;51.064;6.346;2023-11-18T12:56:14;13.10;;;4.67;;
5217;SDS011;26539;51.064;6.346;2023-11-18T12:58:41;13.83;;;5.30;;
5217;SDS011;26539;51.064;6.346;2023-11-18T13:01:08;12.50;;;6.13;;
5217;SDS011;26539;51.064;6.346;2023-11-18T13:03:39;25.83;;;14.07;;
5217;SDS011;26539;51.064;6.346;2023-11-18T13:06:07;33.43;;;19.57;;
5217;SDS011;26539;51.064;6.346;2023-11-18T13:08:39;14.73;;;9.23;;
5217;SDS011;26539;51.064;6.346;2023-11-18T13:11:08;11.97;;;8.57;;
5217;SDS011;26539;51.064;6.346;2023-11-18T13:13:40;12.93;;;10.67;;
5217;SDS011;26539;51.064;6.346;2023-11-18T13:16:09;12.70;;;8.50;;
5217;SDS011;26539;51.064;6.346;2023-11-18T13:18:41;5.70;;;4.33;;
5217;SDS011;26539;51.064;6.346;2023-11-18T13:21:16;8.03;;;4.80;;
5217;SDS011;26539;51.064;6.346;2023-11-18T13:23:44;9.93;;;8.93;;
5217;SDS011;26539;51.064;6.346;2023-11-18T13:26:12;14.27;;;11.50;;
5217;SDS011;26539;51.064;6.346;2023-11-18T13:28:37;8.43;;;6.00;;
5217;SDS011;26539;51.064;6.346;2023-11-18T13:31:04;10.60;;;5.00;;
5217;SDS011;26539;51.064;6.346;2023-11-18T13:33:36;9.23;;;6.73;;
5217;SDS011;26539;51.064;6.346;2023-11-18T13:36:02;7.33;;;5.43;;
5217;SDS011;26539;51.064;6.346;2023-11-18T13:38:30;7.97;;;3.80;;
5217;SDS011;26539;51.064;6.346;2023-11-18T13:40:56;7.20;;;3.93;;
5217;SDS011;26539;51.064;6.346;2023-11-18T13:43:21;5.43;;;3.90;;
5217;SDS011;26539;51.064;6.346;2023-11-18T13:45:54;80.53;;;58.37;;
5217;SDS011;26539;51.064;6.346;2023-11-18T13:48:21;23.23;;;20.40;;
5217;SDS011;26539;51.064;6.346;2023-11-18T13:50:48;16.77;;;14.93;;
5217;SDS011;26539;51.064;6.346;2023-11-18T13:53:15;10.17;;;7.83;;
5217;SDS011;26539;51.064;6.346;2023-11-18T13:55:41;16.63;;;11.13;;
5217;SDS011;26539;51.064;6.346;2023-11-18T13:58:08;21.90;;;16.70;;
5217;SDS011;26539;51.064;6.346;2023-11-18T14:00:35;8.17;;;6.43;;
5217;SDS011;26539;51.064;6.346;2023-11-18T14:03:01;6.87;;;4.83;;
5217;SDS011;26539;51.064;6.346;2023-11-18T14:05:29;7.10;;;4.00;;
5217;SDS011;26539;51.064;6.346;2023-11-18T14:07:58;7.60;;;4.70;;
5217;SDS011;26539;51.064;6.346;2023-11-18T14:10:34;11.37;;;4.87;;
5217;SDS011;26539;51.064;6.346;2023-11-18T14:13:06;12.33;;;4.57;;
5217;SDS011;26539;51.064;6.346;2023-11-18T14:15:34;6.67;;;3.47;;
5217;SDS011;26539;51.064;6.346;2023-11-18T14:18:03;12.53;;;5.50;;
5217;SDS011;26539;51.064;6.346;2023-11-18T14:20:29;8.07;;;3.10;;
5217;SDS011;26539;51.064;6.346;2023-11-18T14:22:56;7.00;;;4.03;;
5217;SDS011;26539;51.064;6.346;2023-11-18T14:25:25;6.47;;;3.90;;
5217;SDS011;26539;51.064;6.346;2023-11-18T14:27:52;6.73;;;3.43;;
5217;SDS011;26539;51.064;6.346;2023-11-18T14:30:18;6.10;;;3.03;;
5217;SDS011;26539;51.064;6.346;2023-11-18T14:32:44;11.40;;;3.70;;
5217;SDS011;26539;51.064;6.346;2023-11-18T14:35:11;7.80;;;3.77;;
5217;SDS011;26539;51.064;6.346;2023-11-18T14:37:41;7.30;;;4.37;;
5217;SDS011;26539;51.064;6.346;2023-11-18T14:40:13;22.17;;;4.90;;
5217;SDS011;26539;51.064;6.346;2023-11-18T14:42:43;10.23;;;4.63;;
5217;SDS011;26539;51.064;6.346;2023-11-18T14:45:11;13.17;;;3.70;;
5217;SDS011;26539;51.064;6.346;2023-11-18T14:47:38;33.70;;;16.43;;
5217;SDS011;26539;51.064;6.346;2023-11-18T14:50:04;41.30;;;15.00;;
5217;SDS011;26539;51.064;6.346;2023-11-18T14:52:40;34.70;;;8.37;;
5217;SDS011;26539;51.064;6.346;2023-11-18T14:55:05;18.13;;;9.40;;
5217;SDS011;26539;51.064;6.346;2023-11-18T14:57:37;19.88;;;13.52;;
5217;SDS011;26539;51.064;6.346;2023-11-18T15:00:03;70.27;;;50.07;;
5217;SDS011;26539;51.064;6.346;2023-11-18T15:02:32;18.60;;;9.50;;
5217;SDS011;26539;51.064;6.346;2023-11-18T15:04:59;103.17;;;57.53;;
5217;SDS011;26539;51.064;6.346;2023-11-18T15:07:25;58.30;;;51.93;;
5217;SDS011;26539;51.064;6.346;2023-11-18T15:09:51;10.63;;;9.03;;